Time;durP1;ratioP1;P1;durP2;ratioP2;P2;SDS_P1;SDS_P2;PMS_P1;PMS_P2;Temp;Humidity;BMP_temperature;BMP_pressure;BME280_temperature;BME280_humidity;BME280_pressure;Samples;Min_cycle;Max_cycle;Signal;HPM_P1;HPM_P2
2022/10/05 00:01:30;;;;;;;9.80;6.37;;;12.30;99.90;;;12.57;100.00;101139.53;4990648;28;20637;-63
2022/10/05 00:04:14;;;;;;;6.97;5.23;;;12.30;99.90;;;12.45;100.00;101138.66;4988876;28;21064;-64
2022/10/05 00:06:44;;;;;;;9.27;6.03;;;12.30;99.90;;;12.45;100.00;101142.13;4989357;28;20622;-63
2022/10/05 00:09:22;;;;;;;9.60;6.43;;;12.30;99.90;;;12.38;100.00;101145.28;4968229;28;20667;-63
2022/10/05 00:11:50;;;;;;;10.93;7.33;;;12.30;99.90;;;12.24;100.00;101135.81;4970332;28;21234;-64
2022/10/05 00:14:28;;;;;;;10.80;6.10;;;12.20;99.90;;;12.26;100.00;101141.75;4971135;28;20655;-63
2022/10/05 00:16:56;;;;;;;9.00;6.27;;;12.20;99.90;;;12.31;100.00;101146.63;4971959;28;20711;-64
2022/10/05 00:19:30;;;;;;;8.97;6.30;;;12.10;99.90;;;12.24;100.00;101141.03;4973692;28;20620;-64
2022/10/05 00:22:18;;;;;;;11.90;6.77;;;12.10;99.90;;;12.28;100.00;101139.03;4972926;28;20603;-64
2022/10/05 00:24:47;;;;;;;8.30;6.07;;;12.10;99.90;;;12.28;100.00;101144.25;4994193;28;20686;-64
2022/10/05 00:27:36;;;;;;;9.87;6.23;;;12.10;99.90;;;12.26;100.00;101151.38;4993940;28;20629;-64
2022/10/05 00:30:20;;;;;;;7.20;5.57;;;12.10;99.90;;;12.28;100.00;101145.09;4982283;28;20634;-63
2022/10/05 00:32:47;;;;;;;7.60;5.60;;;12.10;99.90;;;12.30;100.00;101137.97;4991897;28;21067;-64
2022/10/05 00:35:16;;;;;;;7.23;4.70;;;12.10;99.90;;;12.16;nan;101135.47;4992843;28;21229;-64
2022/10/05 00:37:44;;;;;;;7.57;5.23;;;12.10;99.90;;;12.13;nan;101130.50;4992695;28;20622;-62
2022/10/05 00:40:35;;;;;;;8.03;5.10;;;12.10;99.90;;;12.14;nan;101133.91;4976861;28;20625;-64
2022/10/05 00:43:41;;;;;;;7.40;5.50;;;12.00;99.90;;;12.07;nan;101123.06;4991510;28;20619;-64
2022/10/05 00:46:29;;;;;;;8.50;5.73;;;12.00;99.90;;;12.06;nan;101124.00;4989818;28;20617;-65
2022/10/05 00:49:23;;;;;;;7.70;5.47;;;11.90;99.90;;;12.05;nan;101116.28;4972558;28;20686;-66
2022/10/05 00:52:22;;;;;;;7.33;5.40;;;11.90;99.90;;;12.08;nan;101103.81;4972487;28;20616;-63
2022/10/05 00:55:11;;;;;;;6.27;4.60;;;11.90;99.90;;;12.06;nan;101102.22;4986839;28;20654;-64
2022/10/05 00:58:22;;;;;;;8.70;5.57;;;11.90;99.90;;;12.04;nan;101093.66;4987174;28;20660;-63
2022/10/05 01:01:41;;;;;;;6.20;3.97;;;11.90;99.90;;;11.88;nan;101086.09;4990204;28;20623;-63
2022/10/05 01:04:43;;;;;;;7.97;4.40;;;11.80;99.90;;;11.78;nan;101092.03;4974992;28;20912;-64
2022/10/05 01:07:38;;;;;;;9.83;4.77;;;11.80;99.90;;;11.97;nan;101081.97;4972774;28;21014;-64
2022/10/05 01:10:46;;;;;;;7.30;5.40;;;11.80;99.90;;;11.92;nan;101086.69;4971212;28;20623;-62
2022/10/05 01:13:40;;;;;;;7.33;4.47;;;11.80;99.90;;;11.85;nan;101090.66;4985428;28;20638;-64
2022/10/05 01:16:39;;;;;;;5.60;5.00;;;11.70;99.90;;;11.86;nan;101098.41;4993020;28;20634;-64
2022/10/05 01:19:30;;;;;;;7.47;5.60;;;11.70;99.90;;;11.79;nan;101099.78;4990980;28;20623;-64
2022/10/05 01:22:35;;;;;;;6.50;4.73;;;11.70;99.90;;;11.83;nan;101090.78;4987414;28;20623;-63
2022/10/05 01:25:26;;;;;;;5.37;3.70;;;11.70;99.90;;;11.88;nan;101087.84;4988521;28;20680;-64
2022/10/05 01:28:06;;;;;;;6.00;3.90;;;11.80;99.90;;;11.68;nan;101087.47;4992799;28;20634;-64
2022/10/05 01:30:42;;;;;;;7.30;4.10;;;11.70;99.90;;;11.72;nan;101088.06;4987186;28;20669;-64
2022/10/05 01:33:38;;;;;;;12.10;4.23;;;11.70;99.90;;;11.85;nan;101093.28;4992167;28;20609;-64
2022/10/05 01:36:43;;;;;;;5.77;4.13;;;11.70;99.90;;;11.94;nan;101088.25;4990548;28;20642;-64
2022/10/05 01:39:30;;;;;;;5.20;3.70;;;11.70;99.90;;;11.99;nan;101088.75;4983265;28;20641;-64
2022/10/05 01:42:02;;;;;;;5.90;4.23;;;11.80;99.90;;;11.90;nan;101085.97;5010647;28;20613;-64
2022/10/05 01:44:50;;;;;;;5.97;4.23;;;11.80;99.90;;;11.75;nan;101095.72;4981655;28;20728;-63
2022/10/05 01:47:28;;;;;;;8.20;5.10;;;11.70;99.90;;;11.78;nan;101090.25;4990992;28;21072;-65
2022/10/05 01:50:01;;;;;;;5.83;4.60;;;11.60;99.90;;;11.79;nan;101094.56;4996456;28;20655;-65
2022/10/05 01:52:46;;;;;;;11.83;4.70;;;11.60;99.90;;;11.81;nan;101097.91;4972576;28;20681;-64
2022/10/05 01:55:30;;;;;;;10.57;5.90;;;11.60;99.90;;;11.82;nan;101102.16;4985629;28;20696;-65
2022/10/05 01:58:10;;;;;;;9.00;4.90;;;11.60;99.90;;;11.73;nan;101105.44;4983763;28;21183;-63
2022/10/05 02:00:56;;;;;;;8.97;5.97;;;11.60;99.90;;;11.69;nan;101110.03;4969595;28;21202;-65
2022/10/05 02:03:37;;;;;;;8.17;5.43;;;11.60;99.90;;;11.72;nan;101116.00;4986770;28;20668;-63
2022/10/05 02:06:17;;;;;;;6.87;4.70;;;11.60;99.90;;;11.71;nan;101106.50;4974311;28;20596;-64
2022/10/05 02:09:14;;;;;;;8.57;5.60;;;11.60;99.90;;;11.74;nan;101112.34;4969624;28;20659;-64
2022/10/05 02:11:48;;;;;;;6.50;4.97;;;11.60;99.90;;;11.71;nan;101107.34;4986705;28;20590;-63
2022/10/05 02:14:22;;;;;;;6.40;4.87;;;11.60;99.90;;;11.71;nan;101107.34;4984603;28;21098;-64
2022/10/05 02:16:52;;;;;;;7.03;5.13;;;11.60;99.90;;;11.77;nan;101108.69;4983949;28;20714;-64
2022/10/05 02:19:35;;;;;;;8.20;4.60;;;11.60;99.90;;;11.89;nan;101100.81;4976620;28;20631;-64
2022/10/05 02:22:09;;;;;;;4.90;3.17;;;11.60;99.90;;;11.69;nan;101086.50;4991004;28;20672;-65
2022/10/05 02:24:47;;;;;;;6.90;4.80;;;11.60;99.90;;;11.56;nan;101079.59;4987076;28;20662;-64
2022/10/05 02:27:24;;;;;;;5.90;4.70;;;11.50;99.90;;;11.40;nan;101071.13;4979068;28;20643;-64
2022/10/05 02:30:01;;;;;;;4.50;3.60;;;11.40;99.90;;;11.30;nan;101070.09;4959839;28;21090;-63
2022/10/05 02:32:40;;;;;;;4.67;3.70;;;11.30;99.90;;;11.28;nan;101057.13;4991631;28;20616;-65
2022/10/05 02:35:17;;;;;;;5.70;3.67;;;11.20;99.90;;;11.19;nan;101054.31;4967887;28;20674;-63
2022/10/05 02:38:11;;;;;;;4.13;3.53;;;11.20;99.90;;;11.28;nan;101049.31;4990746;28;20622;-63
2022/10/05 02:41:00;;;;;;;5.83;3.70;;;11.20;99.90;;;11.19;nan;101051.69;4971782;28;20604;-64
2022/10/05 02:43:42;;;;;;;5.90;4.77;;;11.10;99.90;;;11.07;nan;101048.16;4969968;28;21250;-66
2022/10/05 02:46:26;;;;;;;5.03;3.57;;;11.10;99.90;;;11.10;nan;101039.25;4989084;28;20707;-65
2022/10/05 02:49:39;;;;;;;5.23;3.97;;;11.10;99.90;;;11.09;nan;101042.81;4990610;28;20704;-64
2022/10/05 02:52:20;;;;;;;5.43;4.07;;;11.00;99.90;;;11.16;nan;101044.88;4991422;28;21009;-64
2022/10/05 02:55:12;;;;;;;8.90;6.20;;;11.10;99.90;;;11.23;nan;101053.16;4990743;28;20654;-64
2022/10/05 02:57:57;;;;;;;7.00;5.27;;;11.10;99.90;;;11.23;nan;101053.16;4983570;28;21210;-65
2022/10/05 03:00:34;;;;;;;10.13;6.20;;;11.10;99.90;;;11.25;nan;101056.50;4980795;28;20622;-64
2022/10/05 03:03:26;;;;;;;6.40;4.47;;;11.10;99.90;;;11.30;nan;101046.56;4988365;28;20627;-63
2022/10/05 03:06:11;;;;;;;9.27;5.90;;;11.10;99.90;;;11.31;nan;101046.47;4974618;28;20631;-64
2022/10/05 03:08:55;;;;;;;5.43;4.50;;;11.20;99.90;;;11.33;nan;101038.53;4989685;28;20700;-65
2022/10/05 03:12:02;;;;;;;6.00;4.20;;;11.20;99.90;;;11.37;nan;101040.00;4985810;28;20650;-64
2022/10/05 03:15:34;;;;;;;5.70;4.00;;;11.20;99.90;;;11.19;nan;101034.25;4978716;28;20689;-65
2022/10/05 03:18:26;;;;;;;3.37;3.03;;;11.20;99.90;;;11.24;nan;101028.72;4987545;28;20708;-62
2022/10/05 03:21:46;;;;;;;5.93;3.93;;;11.10;99.90;;;11.20;nan;101022.84;4969752;28;20623;-65
2022/10/05 03:25:15;;;;;;;5.80;4.17;;;11.10;99.90;;;10.98;nan;101022.66;4980654;28;20655;-64
2022/10/05 03:28:24;;;;;;;6.00;3.37;;;11.00;99.90;;;10.90;nan;101028.38;4972413;28;20642;-64
2022/10/05 03:31:16;;;;;;;7.77;4.90;;;10.90;99.90;;;10.82;nan;101033.28;4982682;28;20638;-65
2022/10/05 03:33:59;;;;;;;3.17;2.87;;;10.80;99.90;;;10.74;nan;101038.16;4986374;28;20647;-64
2022/10/05 03:36:41;;;;;;;5.13;3.73;;;10.70;99.90;;;10.69;nan;101031.59;4970973;28;20607;-65
2022/10/05 03:39:33;;;;;;;3.13;2.83;;;10.70;99.90;;;10.58;nan;101050.56;4967562;28;20627;-64
2022/10/05 03:42:32;;;;;;;2.80;2.60;;;10.60;99.90;;;10.56;nan;101041.16;4970906;28;20657;-64
2022/10/05 03:45:26;;;;;;;2.60;2.40;;;10.60;99.90;;;10.34;nan;101041.72;4976582;28;20662;-65
2022/10/05 03:48:10;;;;;;;2.67;2.30;;;10.50;99.90;;;10.50;nan;101049.38;4986383;28;21209;-63
2022/10/05 03:50:54;;;;;;;3.07;2.50;;;10.50;99.90;;;10.43;nan;101054.16;4973447;28;21046;-65
2022/10/05 03:53:27;;;;;;;4.03;2.87;;;10.50;99.90;;;10.37;nan;101051.91;4976027;28;20641;-64
2022/10/05 03:56:08;;;;;;;4.30;3.80;;;10.40;99.90;;;10.47;nan;101057.41;4980192;28;21240;-64
2022/10/05 03:58:58;;;;;;;2.50;2.17;;;10.40;99.90;;;10.31;nan;101052.31;4973248;28;21120;-64
2022/10/05 04:01:43;;;;;;;5.73;4.17;;;10.40;99.90;;;10.32;nan;101054.00;4976347;28;20632;-64
2022/10/05 04:04:29;;;;;;;6.30;4.20;;;10.40;99.90;;;10.49;nan;101061.59;4991021;28;20665;-64
2022/10/05 04:06:58;;;;;;;6.87;4.07;;;10.40;99.90;;;10.58;nan;101061.00;4993123;28;20590;-64
2022/10/05 04:09:45;;;;;;;9.40;5.50;;;10.50;99.90;;;10.59;nan;101061.81;4991670;28;20676;-64
2022/10/05 04:12:37;;;;;;;9.20;5.83;;;10.50;99.90;;;10.62;nan;101064.22;4993429;28;20944;-63
2022/10/05 04:15:22;;;;;;;6.77;4.87;;;10.50;99.90;;;10.65;nan;101057.03;4976571;28;20645;-64
2022/10/05 04:18:00;;;;;;;6.80;4.93;;;10.50;99.90;;;10.75;nan;101060.69;4985566;28;20646;-64
2022/10/05 04:20:50;;;;;;;8.20;4.57;;;10.60;99.90;;;10.50;nan;101058.03;4973280;28;20640;-64
2022/10/05 04:23:51;;;;;;;6.97;4.60;;;10.50;99.90;;;10.60;nan;101056.53;4975141;28;20709;-64
2022/10/05 04:26:44;;;;;;;9.27;5.80;;;10.50;99.90;;;10.56;nan;101064.63;4989107;28;20635;-64
2022/10/05 04:29:28;;;;;;;7.20;5.00;;;10.50;99.90;;;10.60;nan;101056.53;4969342;28;20667;-65
2022/10/05 04:32:14;;;;;;;5.60;4.67;;;10.50;99.90;;;10.75;nan;101065.94;4988083;28;20606;-63
2022/10/05 04:34:53;;;;;;;6.37;4.03;;;10.60;99.90;;;10.72;nan;101052.25;4977102;28;20662;-64
2022/10/05 04:38:12;;;;;;;5.43;3.80;;;10.60;99.90;;;10.67;nan;101059.53;4972145;28;21190;-65
2022/10/05 04:41:51;;;;;;;5.63;4.20;;;10.60;99.90;;;10.73;nan;101067.00;4987700;28;20696;-64
2022/10/05 04:44:44;;;;;;;7.10;4.63;;;10.60;99.90;;;10.72;nan;101066.13;5010774;28;20653;-64
2022/10/05 04:47:37;;;;;;;9.33;5.20;;;10.60;99.90;;;10.74;nan;101068.66;5009558;28;20626;-63
2022/10/05 04:50:22;;;;;;;6.27;4.77;;;10.60;99.90;;;10.79;nan;101064.81;4991219;28;20670;-65
2022/10/05 04:53:25;;;;;;;7.90;5.30;;;10.70;99.90;;;10.82;nan;101071.59;4992543;28;20619;-64
2022/10/05 04:56:07;;;;;;;7.20;5.30;;;10.70;99.90;;;10.93;nan;101072.56;4973567;28;20992;-64
2022/10/05 04:59:00;;;;;;;5.70;4.70;;;10.70;99.90;;;11.01;nan;101079.06;4979072;28;20630;-64
2022/10/05 05:02:04;;;;;;;6.47;4.60;;;10.80;99.90;;;11.11;nan;101073.13;4981640;28;20685;-64
2022/10/05 05:05:07;;;;;;;6.03;5.03;;;10.90;99.90;;;11.16;nan;101076.22;4972043;28;20697;-64
2022/10/05 05:07:52;;;;;;;8.40;5.20;;;10.90;99.90;;;11.24;nan;101079.19;4971753;28;20661;-65
2022/10/05 05:10:19;;;;;;;14.20;5.00;;;11.00;99.90;;;11.35;nan;101083.69;4971242;28;20709;-64
2022/10/05 05:13:05;;;;;;;11.37;4.40;;;11.10;99.90;;;11.26;nan;101086.91;4973356;28;20670;-64
2022/10/05 05:16:00;;;;;;;7.57;4.70;;;11.10;99.90;;;11.22;nan;101088.88;4989638;28;20584;-64
2022/10/05 05:19:12;;;;;;;7.07;4.30;;;11.10;99.90;;;11.33;nan;101090.78;4987194;28;20677;-63
2022/10/05 05:22:00;;;;;;;8.90;5.00;;;11.10;99.90;;;11.17;nan;101095.34;4973783;28;20612;-63
2022/10/05 05:25:10;;;;;;;7.50;4.37;;;11.10;99.90;;;11.21;nan;101096.81;4980606;28;20670;-63
2022/10/05 05:27:54;;;;;;;8.33;4.10;;;11.00;99.90;;;11.20;nan;101100.38;4991688;28;20650;-64
2022/10/05 05:30:47;;;;;;;8.47;5.43;;;11.10;99.90;;;11.01;nan;101105.16;4985478;28;20677;-64
2022/10/05 05:34:12;;;;;;;6.63;4.10;;;11.00;99.90;;;11.11;nan;101116.66;4991466;28;20606;-65
2022/10/05 05:37:07;;;;;;;7.10;3.83;;;11.00;99.90;;;11.33;nan;101117.72;4989097;28;20953;-63
2022/10/05 05:40:07;;;;;;;8.67;4.90;;;11.00;99.90;;;11.29;nan;101125.88;4988861;28;20643;-64
2022/10/05 05:42:46;;;;;;;5.70;3.87;;;11.10;99.90;;;11.11;nan;101143.63;4972227;28;20630;-63
2022/10/05 05:45:24;;;;;;;7.33;4.27;;;11.00;99.90;;;11.24;nan;101143.66;4993174;28;21237;-65
2022/10/05 05:47:53;;;;;;;6.77;4.30;;;11.10;99.90;;;11.32;nan;101133.53;4989116;28;21451;-63
2022/10/05 05:50:33;;;;;;;8.57;4.43;;;11.10;99.90;;;11.29;nan;101141.53;4988883;28;20727;-63
2022/10/05 05:53:19;;;;;;;7.60;3.87;;;11.10;99.90;;;11.36;nan;101138.44;4990924;28;21049;-63
2022/10/05 05:55:59;;;;;;;6.53;4.10;;;11.10;99.90;;;11.34;nan;101144.69;4982364;28;21094;-63
2022/10/05 05:58:42;;;;;;;10.30;4.87;;;11.20;99.90;;;11.29;nan;101134.56;4990050;28;21008;-65
2022/10/05 06:01:32;;;;;;;7.47;4.17;;;11.20;99.90;;;11.22;nan;101135.06;4970417;28;20653;-63
2022/10/05 06:04:16;;;;;;;5.00;3.33;;;11.10;99.90;;;10.99;nan;101141.00;4971273;28;21474;-63
2022/10/05 06:06:49;;;;;;;6.37;4.30;;;11.00;99.90;;;11.20;nan;101139.56;4968473;28;20642;-63
2022/10/05 06:09:46;;;;;;;8.67;4.93;;;11.00;99.90;;;11.26;nan;101147.84;4987283;28;20651;-63
2022/10/05 06:12:24;;;;;;;7.37;4.77;;;11.00;99.90;;;11.20;nan;101142.19;4972267;28;21012;-63
2022/10/05 06:14:58;;;;;;;5.70;3.60;;;11.00;99.90;;;11.28;nan;101134.66;4971719;28;20694;-63
2022/10/05 06:17:53;;;;;;;5.57;3.77;;;11.00;99.90;;;11.33;nan;101143.03;4981641;28;20622;-64
2022/10/05 06:20:38;;;;;;;5.03;3.60;;;11.10;99.90;;;11.28;nan;101134.66;4989731;28;21005;-63
2022/10/05 06:23:19;;;;;;;6.13;3.87;;;11.10;99.90;;;11.24;nan;101146.25;4985252;28;20616;-64
2022/10/05 06:26:31;;;;;;;6.30;4.20;;;11.10;99.90;;;11.20;nan;101143.00;4989467;28;20622;-64
2022/10/05 06:29:04;;;;;;;4.77;3.27;;;11.10;99.90;;;11.29;nan;101136.31;5006418;28;20642;-63
2022/10/05 06:32:08;;;;;;;7.40;4.17;;;11.10;99.90;;;11.24;nan;101146.25;4993437;28;21463;-64
2022/10/05 06:35:30;;;;;;;8.03;3.97;;;11.10;99.90;;;11.22;nan;101135.06;4986687;28;20666;-64
2022/10/05 06:38:37;;;;;;;4.83;3.27;;;11.10;99.90;;;11.19;nan;101136.13;4971097;28;20674;-64
2022/10/05 06:41:22;;;;;;;5.47;3.33;;;11.10;99.90;;;11.07;nan;101139.53;4991174;28;20632;-64
2022/10/05 06:44:14;;;;;;;6.33;3.60;;;11.00;99.90;;;11.01;nan;101131.28;4982611;28;20675;-64
2022/10/05 06:46:59;;;;;;;5.20;2.57;;;11.00;99.90;;;10.97;nan;101135.03;4989468;28;20648;-64
2022/10/05 06:50:07;;;;;;;7.93;4.33;;;10.90;99.90;;;11.33;nan;101138.63;4983279;28;21214;-64
2022/10/05 06:53:30;;;;;;;10.90;4.90;;;11.10;99.90;;;11.47;nan;101135.09;4985638;28;20708;-65
2022/10/05 06:56:32;;;;;;;6.70;3.93;;;11.10;99.90;;;11.72;nan;101137.75;4982447;28;20696;-64
2022/10/05 06:59:22;;;;;;;5.70;3.80;;;11.30;99.90;;;11.85;nan;101135.13;4989188;28;20642;-64
2022/10/05 07:02:17;;;;;;;4.83;3.50;;;11.50;99.90;;;11.59;nan;101142.09;4990637;28;21005;-63
2022/10/05 07:05:00;;;;;;;8.57;4.80;;;11.50;99.90;;;11.77;nan;101143.50;4971189;28;20798;-62
2022/10/05 07:07:41;;;;;;;5.63;3.77;;;11.60;99.90;;;11.82;nan;101146.63;4969022;28;20650;-63
2022/10/05 07:10:30;;;;;;;12.53;4.80;;;11.60;99.90;;;11.82;nan;101144.00;4970495;28;20675;-64
2022/10/05 07:13:25;;;;;;;10.17;5.47;;;11.60;99.90;;;11.85;nan;101146.41;4982461;28;20611;-63
2022/10/05 07:16:30;;;;;;;6.97;4.20;;;11.60;99.90;;;11.88;nan;101143.59;4992054;28;20618;-63
2022/10/05 07:19:44;;;;;;;12.07;5.87;;;11.60;99.90;;;12.01;nan;101140.97;4970214;28;20666;-63
2022/10/05 07:22:33;;;;;;;18.07;7.50;;;11.70;99.90;;;12.17;nan;101142.41;4969988;28;20631;-63
2022/10/05 07:25:18;;;;;;;6.37;3.07;;;11.80;99.90;;;12.13;nan;101146.19;4987806;28;21012;-64
2022/10/05 07:28:26;;;;;;;8.50;4.30;;;11.80;99.90;;;12.15;nan;101148.69;4988134;28;20654;-64
2022/10/05 07:31:06;;;;;;;9.00;4.60;;;11.90;99.90;;;12.26;nan;101143.53;4971616;28;20668;-63
2022/10/05 07:33:50;;;;;;;9.83;6.07;;;11.90;99.90;;;12.27;nan;101148.66;4983317;28;21049;-64
2022/10/05 07:40:14;;;;;;;10.57;4.60;;;12.00;99.90;;;12.36;nan;101150.63;4987663;28;20626;-65
2022/10/05 07:42:58;;;;;;;9.40;4.50;;;12.00;99.90;;;12.25;nan;101152.31;4987641;28;20649;-64
2022/10/05 07:45:52;;;;;;;7.50;4.60;;;12.10;99.90;;;12.48;nan;101154.13;4987301;28;20636;-63
2022/10/05 07:48:42;;;;;;;9.67;4.67;;;12.10;99.90;;;12.48;nan;101154.97;4969577;28;20647;-64
2022/10/05 07:51:32;;;;;;;8.60;4.60;;;12.10;99.90;;;12.42;nan;101152.78;4970910;28;20667;-64
2022/10/05 07:54:17;;;;;;;3.97;2.90;;;12.20;99.90;;;12.69;nan;101157.81;4986121;28;20670;-63
2022/10/05 07:56:54;;;;;;;3.93;1.50;;;12.30;99.90;;;12.64;nan;101162.56;4971108;28;20961;-63
2022/10/05 07:59:43;;;;;;;5.17;3.07;;;12.40;99.90;;;12.56;nan;101153.59;4973754;28;20640;-64
2022/10/05 08:02:27;;;;;;;6.90;4.37;;;12.30;99.90;;;12.73;nan;101161.06;4979709;28;20626;-63
2022/10/05 08:05:08;;;;;;;3.43;2.57;;;12.50;99.90;;;12.70;nan;101153.44;4974398;28;20666;-64
2022/10/05 08:07:37;;;;;;;8.53;4.47;;;12.50;99.90;;;12.98;nan;101151.31;4972146;28;20622;-63
2022/10/05 08:10:22;;;;;;;10.17;5.60;;;12.50;99.90;;;13.13;nan;101152.00;4986316;28;20651;-63
2022/10/05 08:13:26;;;;;;;6.97;4.33;;;12.70;99.90;;;12.98;nan;101150.47;4985408;28;20628;-64
2022/10/05 08:15:59;;;;;;;11.80;6.97;;;12.90;99.90;;;13.58;nan;101148.53;4971316;28;21004;-64
2022/10/05 08:18:55;;;;;;;10.40;5.90;;;13.10;99.90;;;14.49;nan;101149.25;4966048;28;20625;-64
2022/10/05 08:21:49;;;;;;;12.80;6.20;;;13.60;99.90;;;14.61;nan;101143.84;4982276;28;20643;-64
2022/10/05 08:24:57;;;;;;;9.67;4.87;;;13.90;99.90;;;14.43;nan;101147.13;4978053;28;20662;-64
2022/10/05 08:27:51;;;;;;;10.10;5.40;;;13.90;99.90;;;14.55;nan;101140.88;4981135;28;20643;-64
2022/10/05 08:30:18;;;;;;;13.23;6.90;;;14.00;99.90;;;14.94;nan;101137.66;4973501;28;20671;-64
2022/10/05 08:33:13;;;;;;;9.93;5.23;;;14.20;99.90;;;15.17;nan;101143.63;4974389;28;20634;-64
2022/10/05 08:35:54;;;;;;;9.60;6.40;;;14.40;99.90;;;15.10;nan;101139.88;5006240;28;21170;-64
2022/10/05 08:38:31;;;;;;;8.60;5.30;;;14.40;99.90;;;15.05;nan;101129.72;4983524;28;20610;-62
2022/10/05 08:41:55;;;;;;;13.70;6.40;;;14.50;99.90;;;15.58;nan;101140.19;4993804;28;20590;-64
2022/10/05 08:44:34;;;;;;;10.90;7.10;;;14.70;99.90;;;15.80;nan;101140.06;4990043;28;20681;-65
2022/10/05 08:48:00;;;;;;;12.20;6.83;;;14.90;99.90;;;15.87;nan;101141.19;4985548;28;21045;-64
2022/10/05 08:51:01;;;;;;;9.60;6.17;;;15.10;99.90;;;16.44;nan;101144.00;4988865;28;20666;-64
2022/10/05 08:54:16;;;;;;;13.10;7.10;;;15.40;99.90;;;18.90;nan;101143.69;4980942;28;21052;-64
2022/10/05 08:57:00;;;;;;;9.40;5.00;;;16.60;99.90;;;22.38;nan;101131.91;4973824;28;20633;-66
2022/10/05 08:59:53;;;;;;;10.70;6.67;;;18.90;99.90;;;26.29;nan;101133.44;4988597;28;20630;-64
2022/10/05 09:02:38;;;;;;;13.83;8.93;;;21.20;99.90;;;28.38;nan;101133.41;4984234;28;21970;-62
2022/10/05 09:05:57;;;;;;;15.10;8.87;;;23.70;99.90;;;30.95;nan;101136.03;4991850;28;20650;-62
2022/10/05 09:08:54;;;;;;;12.80;7.93;;;25.70;99.60;;;31.84;nan;101130.31;4988964;28;20635;-66
2022/10/05 09:11:42;;;;;;;9.90;7.87;;;27.20;94.40;;;33.90;nan;101125.88;4993017;28;20658;-63
2022/10/05 09:14:50;;;;;;;10.10;8.20;;;28.50;91.40;;;36.56;nan;101124.38;4993110;28;20642;-63
2022/10/05 09:17:41;;;;;;;10.17;8.50;;;29.80;86.80;;;39.47;nan;101126.94;4994525;28;20630;-63
2022/10/05 09:20:51;;;;;;;10.03;8.43;;;32.00;77.80;;;40.49;nan;101123.75;4990105;28;20707;-63
2022/10/05 09:26:42;;;;;;;8.63;7.83;;;34.30;66.20;;;41.33;nan;101104.28;4992467;28;20721;-67
2022/10/05 09:29:43;;;;;;;7.70;6.97;;;35.10;62.40;;;39.97;nan;101108.34;4964793;28;20639;-67
2022/10/05 09:32:56;;;;;;;7.47;6.70;;;34.90;59.70;;;37.82;nan;101107.13;4972824;28;20631;-65
2022/10/05 09:36:02;;;;;;;6.70;6.10;;;34.80;58.60;;;41.28;nan;101098.09;4938164;29;20652;-65
2022/10/05 09:39:37;;;;;;;7.07;6.33;;;35.00;59.10;;;42.07;nan;101107.72;4960673;28;20643;-67
2022/10/05 09:42:32;;;;;;;6.30;5.80;;;35.80;57.00;;;40.98;nan;101104.91;4955927;28;20627;-66
2022/10/05 09:45:22;;;;;;;6.60;6.10;;;35.50;56.50;;;42.15;nan;101102.31;4973096;28;20654;-66
2022/10/05 09:48:33;;;;;;;7.00;5.90;;;36.10;55.90;;;42.06;nan;101095.97;4957446;28;20636;-66
2022/10/05 09:52:04;;;;;;;5.80;5.30;;;36.40;54.80;;;43.45;nan;101089.16;4955946;28;20666;-67
2022/10/05 09:55:00;;;;;;;5.97;5.47;;;37.20;53.80;;;42.17;nan;101082.84;4961707;28;21021;-66
2022/10/05 09:57:57;;;;;;;5.17;4.77;;;36.60;53.60;;;44.65;nan;101083.81;4973431;28;20620;-66
2022/10/05 10:00:41;;;;;;;5.03;4.63;;;37.40;53.50;;;42.89;nan;101081.63;4968802;28;20632;-66
2022/10/05 10:04:06;;;;;;;6.10;5.13;;;37.10;52.50;;;44.25;nan;101085.13;4955774;28;20701;-66
2022/10/05 10:07:13;;;;;;;5.90;5.50;;;37.50;52.50;;;44.00;nan;101077.66;4973140;28;20619;-66
2022/10/05 10:09:58;;;;;;;5.37;4.97;;;38.10;51.70;;;44.25;nan;101082.38;4973541;28;20631;-66
2022/10/05 10:13:11;;;;;;;5.47;5.10;;;38.40;51.20;;;41.78;nan;101066.97;4972579;28;20647;-66
2022/10/05 10:16:08;;;;;;;4.83;4.53;;;37.20;51.20;;;40.94;nan;101058.19;4955205;28;20697;-69
2022/10/05 10:18:53;;;;;;;6.10;5.57;;;36.80;51.50;;;39.00;nan;101057.81;4972073;28;20636;-66
2022/10/05 10:22:10;;;;;;;6.53;5.93;;;35.50;52.80;;;37.89;nan;101055.88;4973945;28;20616;-66
2022/10/05 10:25:18;;;;;;;5.23;4.87;;;34.30;54.20;;;39.79;nan;101044.34;4919620;28;20683;-66
2022/10/05 10:28:06;;;;;;;5.47;4.97;;;34.50;55.00;;;40.18;nan;101050.38;4970357;28;20639;-66
2022/10/05 10:31:06;;;;;;;5.33;4.90;;;34.50;55.10;;;36.03;nan;101040.56;4953337;29;20690;-67
2022/10/05 10:33:54;;;;;;;6.23;5.70;;;33.30;56.20;;;33.23;nan;101035.91;4959821;28;20659;-66
2022/10/05 10:36:50;;;;;;;6.57;5.50;;;31.20;59.30;;;31.74;nan;101028.41;4967758;28;20632;-66
2022/10/05 10:39:45;;;;;;;4.97;4.50;;;29.90;61.70;;;28.64;nan;101020.53;4950611;29;20631;-67
2022/10/05 10:42:30;;;;;;;4.70;4.13;;;28.10;64.80;;;26.52;nan;101021.53;4970327;28;20632;-66
2022/10/05 10:45:03;;;;;;;7.00;5.03;;;26.70;68.70;;;25.83;nan;101016.38;4971006;28;20658;-66
2022/10/05 10:47:42;;;;;;;6.03;5.03;;;25.60;71.80;;;24.83;nan;101020.50;4972911;28;20720;-66
2022/10/05 10:50:53;;;;;;;6.00;5.40;;;24.70;74.80;;;24.21;nan;101016.81;4971249;28;20619;-68
2022/10/05 10:53:48;;;;;;;5.10;4.60;;;24.10;78.20;;;23.29;nan;101012.13;4882639;28;20615;-66
2022/10/05 10:56:33;;;;;;;5.30;3.90;;;23.30;83.60;;;22.65;nan;101011.75;4938112;28;20652;-66
2022/10/05 10:59:47;;;;;;;5.97;3.67;;;22.60;90.90;;;21.75;nan;101006.28;4968007;28;20635;-66
2022/10/05 11:02:37;;;;;;;6.83;3.57;;;21.90;97.00;;;21.81;nan;100997.63;4970068;28;20641;-66
2022/10/05 11:05:50;;;;;;;10.87;3.47;;;21.50;99.90;;;21.55;nan;101009.34;4971174;28;20647;-66
2022/10/05 11:09:08;;;;;;;4.43;4.03;;;21.20;99.90;;;21.35;nan;101005.47;4970855;28;21277;-66
2022/10/05 11:12:10;;;;;;;2.83;2.50;;;21.00;99.90;;;21.13;nan;101006.16;4970115;28;20678;-66
2022/10/05 11:15:12;;;;;;;2.63;2.40;;;20.70;99.90;;;20.80;nan;101005.38;4968331;28;21250;-67
2022/10/05 11:18:20;;;;;;;4.03;3.63;;;20.50;99.90;;;20.45;nan;100995.09;4950864;29;20628;-66
2022/10/05 11:21:33;;;;;;;4.60;3.70;;;20.20;99.90;;;20.56;nan;100991.28;4970224;28;20670;-66
2022/10/05 11:24:39;;;;;;;3.57;3.27;;;20.10;99.90;;;20.50;nan;100992.78;4908926;29;20681;-67
2022/10/05 11:27:34;;;;;;;3.10;2.90;;;20.00;99.90;;;20.58;nan;100992.78;4970912;28;20642;-66
2022/10/05 11:30:46;;;;;;;3.20;2.90;;;20.00;99.90;;;20.50;nan;100991.94;4971086;28;20628;-66
2022/10/05 11:33:53;;;;;;;5.13;3.10;;;20.10;99.90;;;20.51;nan;100988.28;4954275;28;20647;-66
2022/10/05 11:36:51;;;;;;;3.37;3.07;;;20.10;99.90;;;20.65;nan;100985.00;4971477;28;21062;-66
2022/10/05 11:39:29;;;;;;;2.63;2.40;;;20.00;99.90;;;20.55;nan;100974.53;4970608;28;20628;-65
2022/10/05 11:42:11;;;;;;;5.60;3.10;;;20.10;99.90;;;20.41;nan;100977.88;4971739;28;20627;-68
2022/10/05 11:44:38;;;;;;;1.57;1.47;;;20.00;99.90;;;20.30;nan;100964.09;4971595;28;20754;-67
2022/10/05 11:47:29;;;;;;;5.27;3.33;;;19.90;99.90;;;20.55;nan;100968.44;4964061;28;20650;-66
2022/10/05 11:50:21;;;;;;;2.77;2.57;;;19.90;99.90;;;20.60;nan;100958.13;4953784;28;21249;-66
2022/10/05 11:53:14;;;;;;;3.10;2.80;;;20.00;99.90;;;20.46;nan;100950.88;4971404;28;20608;-66
2022/10/05 11:56:26;;;;;;;3.20;2.80;;;20.00;99.90;;;20.57;nan;100950.53;4969362;28;21347;-66
2022/10/05 11:59:14;;;;;;;3.57;2.67;;;20.00;99.90;;;20.82;nan;100938.91;4929927;28;20646;-66
2022/10/05 12:01:59;;;;;;;2.43;2.00;;;20.10;99.90;;;20.64;nan;100947.03;4971489;28;20630;-66
2022/10/05 12:04:47;;;;;;;1.90;1.80;;;20.10;99.90;;;20.60;nan;100942.22;4965511;28;20694;-66
2022/10/05 12:07:45;;;;;;;3.50;3.20;;;20.10;99.90;;;20.65;nan;100940.75;4970715;28;20635;-65
2022/10/05 12:10:33;;;;;;;3.00;2.40;;;20.20;99.90;;;20.74;nan;100923.81;4972540;28;20643;-66
2022/10/05 12:13:18;;;;;;;3.40;2.97;;;20.20;99.90;;;20.60;nan;100916.56;4973482;28;20631;-66
2022/10/05 12:15:53;;;;;;;1.90;1.80;;;20.20;99.90;;;20.55;nan;100921.53;4975262;28;21126;-66